createdAt,value
2018-10-17T00:00:34.048Z,60.40
2018-10-17T00:02:38.120Z,60.50
2018-10-17T00:04:42.159Z,60.40
2018-10-17T00:06:46.264Z,60.40
2018-10-17T00:08:50.352Z,60.50
2018-10-17T00:10:54.475Z,60.50
2018-10-17T00:12:58.577Z,60.70
2018-10-17T00:15:02.585Z,60.60
2018-10-17T00:17:07.697Z,60.60
2018-10-17T00:19:12.759Z,60.70
2018-10-17T00:21:16.840Z,61.00
2018-10-17T00:23:20.895Z,61.20
2018-10-17T00:25:24.962Z,61.50
2018-10-17T00:27:29.040Z,61.40
2018-10-17T00:29:33.121Z,61.40
2018-10-17T00:31:37.204Z,61.50
2018-10-17T00:33:41.324Z,61.40
2018-10-17T00:35:45.412Z,61.40
2018-10-17T00:37:49.671Z,61.20
2018-10-17T00:39:53.796Z,61.30
2018-10-17T00:41:57.872Z,61.80
2018-10-17T00:44:01.940Z,61.30
2018-10-17T00:46:06.297Z,61.20
2018-10-17T00:48:10.403Z,61.00
2018-10-17T00:50:14.484Z,61.10
2018-10-17T00:52:18.600Z,61.00
2018-10-17T00:54:22.673Z,61.00
2018-10-17T00:56:26.760Z,61.10
2018-10-17T00:58:30.856Z,61.20
2018-10-17T01:00:34.928Z,61.40
2018-10-17T01:02:39.058Z,61.50
2018-10-17T01:04:43.168Z,61.60
2018-10-17T01:06:47.225Z,61.80
2018-10-17T01:08:51.340Z,61.80
2018-10-17T01:10:55.466Z,61.80
2018-10-17T01:12:59.593Z,61.70
2018-10-17T01:15:03.601Z,61.80
2018-10-17T01:17:08.110Z,61.70
2018-10-17T01:19:12.153Z,61.80
2018-10-17T01:21:16.216Z,61.70
2018-10-17T01:23:20.260Z,61.60
2018-10-17T01:25:24.352Z,61.70
2018-10-17T01:27:28.447Z,61.70
2018-10-17T01:29:33.700Z,61.70
2018-10-17T01:31:37.788Z,61.60
2018-10-17T01:33:41.974Z,62.10
2018-10-17T01:35:46.048Z,62.90
2018-10-17T01:37:50.136Z,63.10
2018-10-17T01:39:54.224Z,62.80
2018-10-17T01:41:58.314Z,62.40
2018-10-17T01:44:02.473Z,62.20
2018-10-17T01:46:06.556Z,62.30
2018-10-17T01:48:10.660Z,62.20
2018-10-17T01:50:14.741Z,62.10
2018-10-17T01:52:18.856Z,62.00
2018-10-17T01:54:22.951Z,61.90
2018-10-17T01:56:27.018Z,61.90
2018-10-17T01:58:31.096Z,62.00
2018-10-17T02:00:35.296Z,62.10
2018-10-17T02:02:39.369Z,62.20
2018-10-17T02:04:43.452Z,62.40
2018-10-17T02:06:47.533Z,62.40
2018-10-17T02:08:51.658Z,62.50
2018-10-17T02:10:55.820Z,62.50
2018-10-17T02:12:59.890Z,62.60
2018-10-17T02:15:04.640Z,62.80
2018-10-17T02:17:09.092Z,63.00
2018-10-17T02:19:13.149Z,63.00
2018-10-17T02:21:17.195Z,63.00
2018-10-17T02:23:21.264Z,63.10
2018-10-17T02:25:25.416Z,62.50
2018-10-17T02:27:29.516Z,63.10
2018-10-17T02:29:34.760Z,62.90
2018-10-17T02:31:38.845Z,62.90
2018-10-17T02:33:42.929Z,62.60
2018-10-17T02:35:47.060Z,62.50
2018-10-17T02:37:51.133Z,62.50
2018-10-17T02:39:55.312Z,62.50
2018-10-17T02:41:59.392Z,62.50
2018-10-17T02:44:04.111Z,62.50
2018-10-17T02:46:08.165Z,62.70
2018-10-17T02:48:12.239Z,62.70
2018-10-17T02:50:16.275Z,62.80
2018-10-17T02:52:20.340Z,63.00
2018-10-17T02:54:24.420Z,63.20
2018-10-17T02:56:28.496Z,63.30
2018-10-17T02:58:32.573Z,63.40
2018-10-17T03:00:36.665Z,63.50
2018-10-17T03:02:40.744Z,63.60
2018-10-17T03:04:44.845Z,63.70
2018-10-17T03:06:48.934Z,63.90
2018-10-17T03:08:53.055Z,63.10
2018-10-17T03:10:57.175Z,63.60
2018-10-17T03:13:01.714Z,63.30
2018-10-17T03:15:06.853Z,63.30
2018-10-17T03:17:10.999Z,63.10
2018-10-17T03:19:15.212Z,62.70
2018-10-17T03:21:19.210Z,62.70
2018-10-17T03:23:23.276Z,62.80
2018-10-17T03:25:27.350Z,62.80
2018-10-17T03:27:31.437Z,62.90
2018-10-17T03:29:35.544Z,62.80
2018-10-17T03:31:39.620Z,62.70
2018-10-17T03:33:43.726Z,62.70
2018-10-17T03:35:47.799Z,62.50
2018-10-17T03:37:51.889Z,62.50
2018-10-17T03:39:56.028Z,62.70
2018-10-17T03:42:00.092Z,62.80
2018-10-17T03:44:04.294Z,62.90
2018-10-17T03:46:08.367Z,63.00
2018-10-17T03:48:12.445Z,63.00
2018-10-17T03:50:16.528Z,63.00
2018-10-17T03:52:20.614Z,62.90
2018-10-17T03:54:24.736Z,62.80
2018-10-17T03:56:29.008Z,62.80
2018-10-17T03:58:33.117Z,62.70
2018-10-17T04:00:37.229Z,62.90
2018-10-17T04:02:41.373Z,63.20
2018-10-17T04:04:45.489Z,63.20
2018-10-17T04:06:49.543Z,63.20
2018-10-17T04:08:53.677Z,63.40
2018-10-17T04:10:57.984Z,63.50
2018-10-17T04:13:02.107Z,63.50
2018-10-17T04:15:06.783Z,63.10
2018-10-17T04:17:11.098Z,62.90
2018-10-17T04:19:15.810Z,62.90
2018-10-17T04:21:20.317Z,62.90
2018-10-17T04:23:24.397Z,62.90
2018-10-17T04:25:28.476Z,62.90
2018-10-17T04:27:32.557Z,62.90
2018-10-17T04:29:36.626Z,63.00
2018-10-17T04:31:40.689Z,62.90
2018-10-17T04:33:44.951Z,62.80
2018-10-17T04:35:49.016Z,62.90
2018-10-17T04:37:53.093Z,62.90
2018-10-17T04:39:57.199Z,62.90
2018-10-17T04:42:01.312Z,62.90
2018-10-17T04:44:05.968Z,63.00
2018-10-17T04:46:10.033Z,63.70
2018-10-17T04:48:14.013Z,63.30
2018-10-17T04:50:18.482Z,63.30
2018-10-17T04:52:22.544Z,63.50
2018-10-17T04:54:26.633Z,63.50
2018-10-17T04:56:30.753Z,63.40
2018-10-17T04:58:35.916Z,63.20
2018-10-17T05:00:40.008Z,63.30
2018-10-17T05:02:44.355Z,63.20
2018-10-17T05:04:48.705Z,63.30
2018-10-17T05:06:52.925Z,63.40
2018-10-17T05:08:56.862Z,63.60
2018-10-17T05:11:00.972Z,64.50
2018-10-17T05:13:05.164Z,63.70
2018-10-17T05:15:09.333Z,63.80
2018-10-17T05:17:13.569Z,63.80
2018-10-17T05:19:17.521Z,63.90
2018-10-17T05:21:21.638Z,63.90
2018-10-17T05:23:25.708Z,64.00
2018-10-17T05:25:29.818Z,64.10
2018-10-17T05:27:33.947Z,64.20
2018-10-17T05:29:38.061Z,64.20
2018-10-17T05:31:42.116Z,64.30
2018-10-17T05:33:46.276Z,64.30
2018-10-17T05:35:50.453Z,64.40
2018-10-17T05:37:54.491Z,64.40
2018-10-17T05:39:58.470Z,64.40
2018-10-17T05:42:02.481Z,64.40
2018-10-17T05:44:06.660Z,64.40
2018-10-17T05:46:10.706Z,65.20
2018-10-17T05:48:14.828Z,64.40
2018-10-17T05:50:18.933Z,64.50
2018-10-17T05:52:23.005Z,64.70
2018-10-17T05:54:27.089Z,64.80
2018-10-17T05:56:31.196Z,64.70
2018-10-17T05:58:36.424Z,64.70
2018-10-17T06:00:40.561Z,64.70
2018-10-17T06:02:44.611Z,65.50
2018-10-17T06:04:48.825Z,64.80
2018-10-17T06:06:52.993Z,64.90
2018-10-17T06:08:57.640Z,65.00
2018-10-17T06:11:01.829Z,65.10
2018-10-17T06:13:06.378Z,65.10
2018-10-17T06:15:10.391Z,65.10
2018-10-17T06:17:14.556Z,65.20
2018-10-17T06:19:18.761Z,65.20
2018-10-17T06:21:22.910Z,65.30
2018-10-17T06:23:27.035Z,65.30
2018-10-17T06:25:31.240Z,65.30
2018-10-17T06:27:35.333Z,65.20
2018-10-17T06:29:39.399Z,65.20
2018-10-17T06:31:43.522Z,64.50
2018-10-17T06:33:47.694Z,65.30
2018-10-17T06:35:52.323Z,65.60
2018-10-17T06:37:56.425Z,65.90
2018-10-17T06:40:00.520Z,66.10
2018-10-17T06:42:05.050Z,66.10
2018-10-17T06:44:09.705Z,66.60
2018-10-17T06:46:13.895Z,66.20
2018-10-17T06:48:18.516Z,66.10
2018-10-17T06:50:22.600Z,66.20
2018-10-17T06:52:26.716Z,66.30
2018-10-17T06:54:30.855Z,66.20
2018-10-17T06:56:34.861Z,66.20
2018-10-17T06:58:38.945Z,66.20
2018-10-17T07:00:43.032Z,66.20
2018-10-17T07:02:47.140Z,66.30
2018-10-17T07:04:51.352Z,66.30
2018-10-17T07:06:55.417Z,66.40
2018-10-17T07:08:59.462Z,66.60
2018-10-17T07:11:03.597Z,66.70
2018-10-17T07:13:07.691Z,66.80
2018-10-17T07:15:11.768Z,66.90
2018-10-17T07:17:15.862Z,66.90
2018-10-17T07:19:19.865Z,66.80
2018-10-17T07:21:23.977Z,66.90
2018-10-17T07:23:28.068Z,67.10
2018-10-17T07:25:32.141Z,67.30
2018-10-17T07:27:36.657Z,67.40
2018-10-17T07:29:40.888Z,67.60
2018-10-17T07:31:44.929Z,67.80
2018-10-17T07:33:49.038Z,68.20
2018-10-17T07:35:53.194Z,68.60
2018-10-17T07:37:57.319Z,68.80
2018-10-17T07:40:01.441Z,69.10
2018-10-17T07:42:05.871Z,69.20
2018-10-17T07:44:09.944Z,69.30
2018-10-17T07:46:14.080Z,70.20
2018-10-17T07:48:19.298Z,69.50
2018-10-17T07:50:23.431Z,69.60
2018-10-17T07:52:27.517Z,69.60
2018-10-17T07:54:31.609Z,69.50
2018-10-17T07:58:36.425Z,69.60
2018-10-17T08:00:40.488Z,69.70
2018-10-17T08:02:44.612Z,69.50
2018-10-17T08:04:49.063Z,69.50
2018-10-17T08:06:53.142Z,69.50
2018-10-17T08:08:57.356Z,69.50
2018-10-17T08:11:01.444Z,69.60
2018-10-17T08:13:05.797Z,69.60
2018-10-17T08:15:10.444Z,69.60
2018-10-17T08:17:14.592Z,69.80
2018-10-17T08:19:19.709Z,69.80
2018-10-17T08:21:23.992Z,69.80
2018-10-17T08:23:28.075Z,69.80
2018-10-17T08:25:32.152Z,69.70
2018-10-17T08:27:36.349Z,69.70
2018-10-17T08:29:40.388Z,69.80
2018-10-17T08:31:44.659Z,70.00
2018-10-17T08:33:48.796Z,70.10
2018-10-17T08:35:53.050Z,70.10
2018-10-17T08:37:57.154Z,70.30
2018-10-17T08:40:01.229Z,70.40
2018-10-17T08:42:06.252Z,70.30
2018-10-17T08:44:10.529Z,70.00
2018-10-17T08:46:14.904Z,70.10
2018-10-17T08:48:20.175Z,70.50
2018-10-17T08:50:24.244Z,70.80
2018-10-17T08:52:28.309Z,71.50
2018-10-17T08:54:32.401Z,70.70
2018-10-17T08:56:36.460Z,70.90
2018-10-17T08:58:40.527Z,70.70
2018-10-17T09:00:44.608Z,70.80
2018-10-17T09:02:48.713Z,71.00
2018-10-17T09:04:52.787Z,71.10
2018-10-17T09:06:56.935Z,71.50
2018-10-17T09:09:01.068Z,71.60
2018-10-17T09:11:05.441Z,71.70
2018-10-17T09:13:09.637Z,71.70
2018-10-17T09:15:13.757Z,71.70
2018-10-17T09:17:17.803Z,71.70
2018-10-17T09:19:21.927Z,71.70
2018-10-17T09:21:26.437Z,71.40
2018-10-17T09:23:30.044Z,71.40
2018-10-17T09:25:34.189Z,71.40
2018-10-17T09:27:38.316Z,71.70
2018-10-17T09:29:42.400Z,71.80
2018-10-17T09:31:46.516Z,72.10
2018-10-17T09:33:50.669Z,72.20
2018-10-17T09:35:54.787Z,71.50
2018-10-17T09:37:58.858Z,71.80
2018-10-17T09:40:03.083Z,72.10
2018-10-17T09:42:07.222Z,72.40
2018-10-17T09:44:11.304Z,72.60
2018-10-17T09:46:15.492Z,72.50
2018-10-17T09:48:19.535Z,72.10
2018-10-17T09:50:23.557Z,72.20
2018-10-17T09:52:27.648Z,72.30
2018-10-17T09:54:31.783Z,72.20
2018-10-17T09:56:35.868Z,72.10
2018-10-17T09:58:41.076Z,71.60
2018-10-17T10:00:50.441Z,71.50
2018-10-17T10:02:54.559Z,71.40
2018-10-17T10:04:58.643Z,70.90
2018-10-17T10:07:02.736Z,70.60
2018-10-17T10:09:08.928Z,70.40
2018-10-17T10:11:13.056Z,69.70
2018-10-17T10:13:17.231Z,69.80
2018-10-17T10:15:21.538Z,69.50
2018-10-17T10:17:25.729Z,69.60
2018-10-17T10:19:29.800Z,68.90
2018-10-17T10:21:33.944Z,69.10
2018-10-17T10:23:38.204Z,69.30
2018-10-17T10:25:42.367Z,69.00
2018-10-17T10:27:46.444Z,68.70
2018-10-17T10:29:50.677Z,68.60
2018-10-17T10:31:54.740Z,68.70
2018-10-17T10:33:59.347Z,68.00
2018-10-17T10:36:03.556Z,68.00
2018-10-17T10:38:07.772Z,67.50
2018-10-17T10:40:11.911Z,65.00
2018-10-17T10:42:16.028Z,66.30
2018-10-17T10:44:20.167Z,65.70
2018-10-17T10:46:24.269Z,66.00
2018-10-17T10:48:28.788Z,64.90
2018-10-17T10:50:32.913Z,64.80
2018-10-17T10:52:37.021Z,64.30
2018-10-17T10:54:42.113Z,61.00
2018-10-17T10:56:46.421Z,62.10
2018-10-17T10:58:50.743Z,61.30
2018-10-17T11:00:54.693Z,61.90
2018-10-17T11:02:58.840Z,62.10
2018-10-17T11:05:02.986Z,62.10
2018-10-17T11:07:07.900Z,60.90
2018-10-17T11:09:11.999Z,59.00
2018-10-17T11:11:16.172Z,59.20
2018-10-17T11:13:20.224Z,58.30
2018-10-17T11:15:24.550Z,58.30
2018-10-17T11:17:28.664Z,58.90
2018-10-17T11:19:32.763Z,57.10
2018-10-17T11:21:36.880Z,56.20
2018-10-17T11:23:41.042Z,55.20
2018-10-17T11:25:45.153Z,54.70
2018-10-17T11:27:49.249Z,54.00
2018-10-17T11:29:53.360Z,54.60
2018-10-17T11:31:57.554Z,53.90
2018-10-17T11:34:01.541Z,51.80
2018-10-17T11:36:05.665Z,53.00
2018-10-17T11:38:09.840Z,52.40
2018-10-17T11:40:13.959Z,51.70
2018-10-17T11:42:18.059Z,51.30
2018-10-17T11:44:22.192Z,50.50
2018-10-17T11:46:26.276Z,49.60
2018-10-17T11:48:30.404Z,48.40
2018-10-17T11:50:34.596Z,47.40
2018-10-17T11:52:39.023Z,47.20
2018-10-17T11:54:44.085Z,47.50
2018-10-17T11:56:48.525Z,47.10
2018-10-17T11:58:52.635Z,46.50
2018-10-17T12:00:56.720Z,46.00
2018-10-17T12:03:00.915Z,45.40
2018-10-17T12:05:06.782Z,44.90
2018-10-17T12:07:10.569Z,44.50
2018-10-17T12:09:14.655Z,44.90
2018-10-17T12:11:18.730Z,44.50
2018-10-17T12:13:22.829Z,44.60
2018-10-17T12:15:27.002Z,44.70
2018-10-17T12:17:31.132Z,43.90
2018-10-17T12:19:35.251Z,43.30
2018-10-17T12:21:39.520Z,43.10
2018-10-17T12:23:43.532Z,42.90
2018-10-17T12:25:47.659Z,43.10
2018-10-17T12:27:51.831Z,42.90
2018-10-17T12:29:55.889Z,42.80
2018-10-17T12:31:59.956Z,42.50
2018-10-17T12:34:04.084Z,42.50
2018-10-17T12:36:08.155Z,42.30
2018-10-17T12:38:12.240Z,42.30
2018-10-17T12:40:16.384Z,43.00
2018-10-17T12:42:20.498Z,42.90
2018-10-17T12:44:24.633Z,43.20
2018-10-17T12:46:28.914Z,42.60
2018-10-17T12:48:32.998Z,42.40
2018-10-17T12:50:37.125Z,42.00
2018-10-17T12:52:41.432Z,42.10
2018-10-17T12:54:45.392Z,42.40
2018-10-17T12:56:49.494Z,42.90
2018-10-17T12:58:53.714Z,42.30
2018-10-17T13:00:57.773Z,41.80
2018-10-17T13:03:02.767Z,41.80
2018-10-17T13:05:08.710Z,42.50
2018-10-17T13:07:12.867Z,42.80
2018-10-17T13:09:16.852Z,42.50
2018-10-17T13:11:20.991Z,42.30
2018-10-17T13:13:25.040Z,41.50
2018-10-17T13:15:29.157Z,41.20
2018-10-17T13:17:33.249Z,41.30
2018-10-17T13:19:37.501Z,41.40
2018-10-17T13:21:41.657Z,41.50
2018-10-17T13:23:45.869Z,41.00
2018-10-17T13:25:50.028Z,41.40
2018-10-17T13:27:54.132Z,41.90
2018-10-17T13:29:58.228Z,41.80
2018-10-17T13:32:02.393Z,41.90
2018-10-17T13:34:06.833Z,40.70
2018-10-17T13:36:10.922Z,41.30
2018-10-17T13:38:15.370Z,42.10
2018-10-17T13:40:19.843Z,41.80
2018-10-17T13:42:23.914Z,42.80
2018-10-17T13:44:28.593Z,43.70
2018-10-17T13:46:32.731Z,44.80
2018-10-17T13:48:36.808Z,46.20
2018-10-17T13:50:40.993Z,45.50
2018-10-17T13:52:45.084Z,46.00
2018-10-17T13:54:49.282Z,46.30
2018-10-17T13:56:53.273Z,44.70
2018-10-17T13:58:57.535Z,43.70
2018-10-17T14:01:01.617Z,43.20
2018-10-17T14:03:05.695Z,42.80
2018-10-17T14:05:10.288Z,42.40
2018-10-17T14:07:14.453Z,41.80
2018-10-17T14:09:18.572Z,41.80
2018-10-17T14:11:22.692Z,41.40
2018-10-17T14:13:26.751Z,41.20
2018-10-17T14:15:31.344Z,41.10
2018-10-17T14:17:35.411Z,41.20
2018-10-17T14:19:39.779Z,40.80
2018-10-17T14:21:43.891Z,40.80
2018-10-17T14:23:48.039Z,40.80
2018-10-17T14:25:52.093Z,41.10
2018-10-17T14:27:56.511Z,40.80
2018-10-17T14:30:00.731Z,41.20
2018-10-17T14:32:05.192Z,41.70
2018-10-17T14:34:10.380Z,41.70
2018-10-17T14:36:14.466Z,42.00
2018-10-17T14:38:18.543Z,41.80
2018-10-17T14:40:22.676Z,41.70
2018-10-17T14:42:26.808Z,41.30
2018-10-17T14:44:30.937Z,41.00
2018-10-17T14:46:35.255Z,41.30
2018-10-17T14:48:39.453Z,41.40
2018-10-17T14:50:43.545Z,41.70
2018-10-17T14:52:47.641Z,41.50
2018-10-17T14:54:51.720Z,41.70
2018-10-17T14:56:55.858Z,41.70
2018-10-17T14:59:00.002Z,41.70
2018-10-17T15:01:04.092Z,41.60
2018-10-17T15:03:08.239Z,41.90
2018-10-17T15:05:12.389Z,42.30
2018-10-17T15:07:16.461Z,43.30
2018-10-17T15:09:21.139Z,43.60
2018-10-17T15:11:25.252Z,44.00
2018-10-17T15:13:29.330Z,43.90
2018-10-17T15:15:37.521Z,44.20
2018-10-17T15:17:41.732Z,44.40
2018-10-17T15:19:45.913Z,44.70
2018-10-17T15:21:51.361Z,45.00
2018-10-17T15:23:55.464Z,45.00
2018-10-17T15:25:59.552Z,45.30
2018-10-17T15:28:03.713Z,45.40
2018-10-17T15:30:08.503Z,45.70
2018-10-17T15:32:12.596Z,45.50
2018-10-17T15:34:16.687Z,45.80
2018-10-17T15:36:20.941Z,45.90
2018-10-17T15:38:24.996Z,46.20
2018-10-17T15:40:29.148Z,46.30
2018-10-17T15:42:33.236Z,46.40
2018-10-17T15:44:37.434Z,46.60
2018-10-17T15:46:41.524Z,46.80
2018-10-17T15:48:45.644Z,47.00
2018-10-17T15:50:49.748Z,47.10
2018-10-17T15:52:53.870Z,47.30
2018-10-17T15:54:58.015Z,47.70
2018-10-17T15:57:02.110Z,47.70
2018-10-17T15:59:06.328Z,48.50
2018-10-17T16:05:48.460Z,48.30
2018-10-17T16:07:52.549Z,48.30
2018-10-17T16:09:56.611Z,48.50
2018-10-17T16:12:02.149Z,48.90
2018-10-17T16:14:06.454Z,50.40
2018-10-17T16:16:10.476Z,50.00
2018-10-17T16:18:14.699Z,50.10
2018-10-17T16:20:18.950Z,50.30
2018-10-17T16:22:22.991Z,50.20
2018-10-17T16:24:27.220Z,50.20
2018-10-17T16:26:31.336Z,50.20
2018-10-17T16:28:35.443Z,50.10
2018-10-17T16:30:39.656Z,50.30
2018-10-17T16:32:43.654Z,50.50
2018-10-17T16:34:47.729Z,50.60
2018-10-17T16:36:51.831Z,50.80
2018-10-17T16:38:56.032Z,51.00
2018-10-17T16:41:00.189Z,51.10
2018-10-17T16:43:04.252Z,51.20
2018-10-17T16:45:09.598Z,51.40
2018-10-17T16:47:14.409Z,51.50
2018-10-17T16:49:18.564Z,51.60
2018-10-17T16:51:22.681Z,51.70
2018-10-17T16:53:26.823Z,51.80
2018-10-17T16:55:30.926Z,51.90
2018-10-17T16:57:35.062Z,52.10
2018-10-17T16:59:39.505Z,52.10
2018-10-17T17:01:43.710Z,52.20
2018-10-17T17:03:47.781Z,52.30
2018-10-17T17:05:51.890Z,52.40
2018-10-17T17:07:56.081Z,52.60
2018-10-17T17:10:00.167Z,52.70
2018-10-17T17:12:04.333Z,52.70
2018-10-17T17:14:08.418Z,52.80
2018-10-17T17:16:12.569Z,52.90
2018-10-17T17:18:16.778Z,52.90
2018-10-17T17:20:20.748Z,53.00
2018-10-17T17:22:24.808Z,53.10
2018-10-17T17:24:28.884Z,53.20
2018-10-17T17:26:33.049Z,53.30
2018-10-17T17:28:37.200Z,53.20
2018-10-17T17:30:41.327Z,53.30
2018-10-17T17:32:46.091Z,53.30
2018-10-17T17:34:50.188Z,53.40
2018-10-17T17:36:54.320Z,53.40
2018-10-17T17:38:58.890Z,53.50
2018-10-17T17:41:02.992Z,53.60
2018-10-17T17:43:07.131Z,53.80
2018-10-17T17:45:11.407Z,53.80
2018-10-17T17:47:15.614Z,53.80
2018-10-17T17:49:19.791Z,54.00
2018-10-17T17:51:23.860Z,53.90
2018-10-17T17:53:28.103Z,54.00
2018-10-17T17:55:32.218Z,54.10
2018-10-17T17:57:36.319Z,54.10
2018-10-17T17:59:40.432Z,54.10
2018-10-17T18:01:45.367Z,54.10
2018-10-17T18:03:49.488Z,54.20
2018-10-17T18:05:53.636Z,54.30
2018-10-17T18:07:57.670Z,55.00
2018-10-17T18:10:01.843Z,54.40
2018-10-17T18:12:06.405Z,54.50
2018-10-17T18:14:10.578Z,54.50
2018-10-17T18:16:14.810Z,54.70
2018-10-17T18:18:18.899Z,54.70
2018-10-17T18:20:23.265Z,54.80
2018-10-17T18:22:27.671Z,54.80
2018-10-17T18:24:31.615Z,54.90
2018-10-17T18:26:35.793Z,54.90
2018-10-17T18:28:40.375Z,54.90
2018-10-17T18:30:44.460Z,55.00
2018-10-17T18:32:48.524Z,55.10
2018-10-17T18:34:52.669Z,55.10
2018-10-17T18:36:56.869Z,54.80
2018-10-17T18:39:00.940Z,55.90
2018-10-17T18:41:05.556Z,55.30
2018-10-17T18:43:09.654Z,55.40
2018-10-17T18:45:13.806Z,55.40
2018-10-17T18:47:17.960Z,55.40
2018-10-17T18:49:22.097Z,55.50
2018-10-17T18:51:26.141Z,55.50
2018-10-17T18:53:30.213Z,55.70
2018-10-17T18:55:34.389Z,55.70
2018-10-17T18:57:38.468Z,55.80
2018-10-17T18:59:42.624Z,55.80
2018-10-17T19:01:46.942Z,56.00
2018-10-17T19:03:51.115Z,56.00
2018-10-17T19:05:55.169Z,55.90
2018-10-17T19:07:59.512Z,55.90
2018-10-17T19:10:03.824Z,55.90
2018-10-17T19:12:08.818Z,55.90
2018-10-17T19:14:12.923Z,56.00
2018-10-17T19:16:19.326Z,56.10
2018-10-17T19:18:23.484Z,56.10
2018-10-17T19:20:27.652Z,56.20
2018-10-17T19:22:31.824Z,56.30
2018-10-17T19:24:35.959Z,56.30
2018-10-17T19:26:40.080Z,56.40
2018-10-17T19:28:44.131Z,56.50
2018-10-17T19:30:48.281Z,56.50
2018-10-17T19:32:52.510Z,56.60
2018-10-17T19:34:56.673Z,56.60
2018-10-17T19:37:00.750Z,56.70
2018-10-17T19:39:08.056Z,56.70
2018-10-17T19:41:12.060Z,56.80
2018-10-17T19:43:16.223Z,56.90
2018-10-17T19:45:20.280Z,56.90
2018-10-17T19:47:24.426Z,56.90
2018-10-17T19:49:28.543Z,56.90
2018-10-17T19:51:32.706Z,57.00
2018-10-17T19:53:36.799Z,57.10
2018-10-17T19:55:40.909Z,57.00
2018-10-17T19:57:45.577Z,57.00
2018-10-17T19:59:49.829Z,57.10
2018-10-17T20:01:54.042Z,57.00
2018-10-17T20:03:58.144Z,58.10
2018-10-17T20:06:02.277Z,58.10
2018-10-17T20:08:06.425Z,58.00
2018-10-17T20:10:10.558Z,57.90
2018-10-17T20:12:14.652Z,57.80
2018-10-17T20:14:18.774Z,57.80
2018-10-17T20:16:22.890Z,57.70
2018-10-17T20:18:26.967Z,57.70
2018-10-17T20:20:34.892Z,57.70
2018-10-17T20:22:39.100Z,57.90
2018-10-17T20:24:43.275Z,57.90
2018-10-17T20:26:47.405Z,57.90
2018-10-17T20:30:20.680Z,57.80
2018-10-17T20:32:24.796Z,57.80
2018-10-17T20:34:29.001Z,57.80
2018-10-17T20:36:33.084Z,58.50
2018-10-17T20:38:37.276Z,58.10
2018-10-17T20:40:41.402Z,58.10
2018-10-17T20:42:45.557Z,58.20
2018-10-17T20:44:49.775Z,58.20
2018-10-17T20:46:53.904Z,58.30
2018-10-17T20:48:58.152Z,58.40
2018-10-17T20:51:02.263Z,58.50
2018-10-17T20:53:06.680Z,58.60
2018-10-17T20:55:10.809Z,58.50
2018-10-17T20:57:14.896Z,59.20
2018-10-17T20:59:19.048Z,59.00
2018-10-17T21:01:23.689Z,58.60
2018-10-17T21:03:27.860Z,58.60
2018-10-17T21:05:32.285Z,58.50
2018-10-17T21:07:36.700Z,58.40
2018-10-17T21:09:40.777Z,58.50
2018-10-17T21:11:44.867Z,58.50
2018-10-17T21:13:48.972Z,58.50
2018-10-17T21:15:53.120Z,58.60
2018-10-17T21:17:57.228Z,58.70
2018-10-17T21:20:01.459Z,58.80
2018-10-17T21:22:05.684Z,58.80
2018-10-17T21:24:09.852Z,58.80
2018-10-17T21:26:14.022Z,58.80
2018-10-17T21:28:18.064Z,58.70
2018-10-17T21:30:22.186Z,58.70
2018-10-17T21:32:26.368Z,58.80
2018-10-17T21:34:36.739Z,58.80
2018-10-17T21:36:41.156Z,58.90
2018-10-17T21:38:45.280Z,59.00
2018-10-17T21:40:49.432Z,59.00
2018-10-17T21:42:53.596Z,59.00
2018-10-17T21:44:57.782Z,59.00
2018-10-17T21:47:01.908Z,59.10
2018-10-17T21:49:07.193Z,59.20
2018-10-17T21:51:11.260Z,59.20
2018-10-17T21:53:15.795Z,59.20
2018-10-17T21:55:20.376Z,59.30
2018-10-17T21:57:24.456Z,59.40
2018-10-17T21:59:28.544Z,59.40
2018-10-17T22:01:32.640Z,59.40
2018-10-17T22:03:36.716Z,59.50
2018-10-17T22:05:40.840Z,59.50
2018-10-17T22:07:44.891Z,59.50
2018-10-17T22:09:49.051Z,59.60
2018-10-17T22:11:53.107Z,59.70
2018-10-17T22:13:57.129Z,59.60
2018-10-17T22:16:01.094Z,59.70
2018-10-17T22:18:05.519Z,59.70
2018-10-17T22:20:09.519Z,59.70
2018-10-17T22:22:13.569Z,59.80
2018-10-17T22:24:17.909Z,59.80
2018-10-17T22:26:21.977Z,59.80
2018-10-17T22:28:26.089Z,59.90
2018-10-17T22:30:30.351Z,59.90
2018-10-17T22:32:34.450Z,60.00
2018-10-17T22:34:38.532Z,59.90
2018-10-17T22:36:42.652Z,60.00
2018-10-17T22:38:46.716Z,60.00
2018-10-17T22:40:50.816Z,60.00
2018-10-17T22:42:54.911Z,60.00
2018-10-17T22:44:59.951Z,60.00
2018-10-17T22:47:04.416Z,60.00
2018-10-17T22:49:09.618Z,60.10
2018-10-17T22:51:13.743Z,60.10
2018-10-17T22:53:17.829Z,60.20
2018-10-17T22:55:21.949Z,60.20
2018-10-17T22:57:25.991Z,60.20
2018-10-17T22:59:30.084Z,60.20
2018-10-17T23:01:34.260Z,60.00
2018-10-17T23:03:38.400Z,60.10
2018-10-17T23:05:42.480Z,60.10
2018-10-17T23:07:46.564Z,60.10
2018-10-17T23:09:50.643Z,60.20
2018-10-17T23:11:54.765Z,60.10
2018-10-17T23:13:58.822Z,60.10
2018-10-17T23:16:02.928Z,60.00
2018-10-17T23:18:07.021Z,59.90
2018-10-17T23:20:11.294Z,60.10
2018-10-17T23:22:15.357Z,60.10
2018-10-17T23:24:19.586Z,60.00
2018-10-17T23:26:23.732Z,60.10
2018-10-17T23:28:27.837Z,60.20
2018-10-17T23:30:31.940Z,60.20
2018-10-17T23:32:36.137Z,60.10
2018-10-17T23:34:40.220Z,60.20
2018-10-17T23:36:44.294Z,61.00
2018-10-17T23:38:48.463Z,60.20
2018-10-17T23:40:52.663Z,60.10
2018-10-17T23:42:56.888Z,60.20
2018-10-17T23:45:01.260Z,60.30
2018-10-17T23:47:05.324Z,60.40
2018-10-17T23:49:09.407Z,60.40
2018-10-17T23:51:13.473Z,60.40
2018-10-17T23:53:17.595Z,60.40
2018-10-17T23:55:21.676Z,60.40
2018-10-17T23:57:25.752Z,60.40
2018-10-17T23:59:29.836Z,60.40
